sensor_id;sensor_type;location;lat;lon;timestamp;temperature;humidity
8979;DHT22;4524;51.364;5.448;2022-07-22T00:01:31;16.80;99.90
8979;DHT22;4524;51.364;5.448;2022-07-22T00:03:59;16.70;99.90
8979;DHT22;4524;51.364;5.448;2022-07-22T00:06:28;16.70;99.90
8979;DHT22;4524;51.364;5.448;2022-07-22T00:08:58;16.60;99.90
8979;DHT22;4524;51.364;5.448;2022-07-22T00:11:26;16.70;99.90
8979;DHT22;4524;51.364;5.448;2022-07-22T00:13:54;16.60;99.90
8979;DHT22;4524;51.364;5.448;2022-07-22T00:16:22;16.70;99.90
8979;DHT22;4524;51.364;5.448;2022-07-22T00:18:50;16.70;99.90
8979;DHT22;4524;51.364;5.448;2022-07-22T00:21:19;16.70;99.90
8979;DHT22;4524;51.364;5.448;2022-07-22T00:23:47;16.80;99.90
8979;DHT22;4524;51.364;5.448;2022-07-22T00:26:16;16.80;99.90
8979;DHT22;4524;51.364;5.448;2022-07-22T00:28:45;16.80;99.90
8979;DHT22;4524;51.364;5.448;2022-07-22T00:31:13;16.90;99.90
8979;DHT22;4524;51.364;5.448;2022-07-22T00:33:41;16.70;99.90
8979;DHT22;4524;51.364;5.448;2022-07-22T00:36:09;16.80;99.90
8979;DHT22;4524;51.364;5.448;2022-07-22T00:38:37;16.80;99.90
8979;DHT22;4524;51.364;5.448;2022-07-22T00:41:05;16.90;99.90
8979;DHT22;4524;51.364;5.448;2022-07-22T00:43:53;16.80;99.90
8979;DHT22;4524;51.364;5.448;2022-07-22T00:46:22;16.80;99.90
8979;DHT22;4524;51.364;5.448;2022-07-22T00:48:52;16.80;99.90
8979;DHT22;4524;51.364;5.448;2022-07-22T00:51:21;16.80;99.90
8979;DHT22;4524;51.364;5.448;2022-07-22T00:53:51;16.80;99.90
8979;DHT22;4524;51.364;5.448;2022-07-22T00:56:20;16.90;99.90
8979;DHT22;4524;51.364;5.448;2022-07-22T00:58:51;16.90;99.90
8979;DHT22;4524;51.364;5.448;2022-07-22T01:01:20;16.90;99.90
8979;DHT22;4524;51.364;5.448;2022-07-22T01:03:48;17.00;99.90
8979;DHT22;4524;51.364;5.448;2022-07-22T01:06:22;17.00;99.90
8979;DHT22;4524;51.364;5.448;2022-07-22T01:08:50;17.00;99.90
8979;DHT22;4524;51.364;5.448;2022-07-22T01:11:20;17.00;99.90
8979;DHT22;4524;51.364;5.448;2022-07-22T01:13:48;17.00;99.90
8979;DHT22;4524;51.364;5.448;2022-07-22T01:16:36;17.00;99.90
8979;DHT22;4524;51.364;5.448;2022-07-22T01:19:04;17.00;99.90
8979;DHT22;4524;51.364;5.448;2022-07-22T01:21:36;17.00;99.90
8979;DHT22;4524;51.364;5.448;2022-07-22T01:24:05;17.00;99.90
8979;DHT22;4524;51.364;5.448;2022-07-22T01:26:33;17.00;99.90
8979;DHT22;4524;51.364;5.448;2022-07-22T01:29:02;17.00;99.90
8979;DHT22;4524;51.364;5.448;2022-07-22T01:31:31;17.00;99.90
8979;DHT22;4524;51.364;5.448;2022-07-22T01:33:59;17.00;99.90
8979;DHT22;4524;51.364;5.448;2022-07-22T01:36:27;17.00;99.90
8979;DHT22;4524;51.364;5.448;2022-07-22T01:38:57;17.00;99.90
8979;DHT22;4524;51.364;5.448;2022-07-22T01:41:26;16.90;99.90
8979;DHT22;4524;51.364;5.448;2022-07-22T01:43:54;16.90;99.90
8979;DHT22;4524;51.364;5.448;2022-07-22T01:46:22;16.90;99.90
8979;DHT22;4524;51.364;5.448;2022-07-22T01:48:51;16.90;99.90
8979;DHT22;4524;51.364;5.448;2022-07-22T01:51:20;16.80;99.90
8979;DHT22;4524;51.364;5.448;2022-07-22T01:53:48;16.80;99.90
8979;DHT22;4524;51.364;5.448;2022-07-22T01:56:18;16.80;99.90
8979;DHT22;4524;51.364;5.448;2022-07-22T01:58:49;16.80;99.90
8979;DHT22;4524;51.364;5.448;2022-07-22T02:01:22;16.90;99.90
8979;DHT22;4524;51.364;5.448;2022-07-22T02:03:52;16.90;99.90
8979;DHT22;4524;51.364;5.448;2022-07-22T02:06:20;16.90;99.90
8979;DHT22;4524;51.364;5.448;2022-07-22T02:08:49;16.90;99.90
8979;DHT22;4524;51.364;5.448;2022-07-22T02:11:31;16.90;99.90
8979;DHT22;4524;51.364;5.448;2022-07-22T02:14:00;16.90;99.90
8979;DHT22;4524;51.364;5.448;2022-07-22T02:16:29;16.80;99.90
8979;DHT22;4524;51.364;5.448;2022-07-22T02:18:58;16.80;99.90
8979;DHT22;4524;51.364;5.448;2022-07-22T02:21:27;16.80;99.90
8979;DHT22;4524;51.364;5.448;2022-07-22T02:23:58;16.80;99.90
8979;DHT22;4524;51.364;5.448;2022-07-22T02:26:26;16.70;99.90
8979;DHT22;4524;51.364;5.448;2022-07-22T02:28:56;16.70;99.90
8979;DHT22;4524;51.364;5.448;2022-07-22T02:31:24;16.70;99.90
8979;DHT22;4524;51.364;5.448;2022-07-22T02:33:52;16.70;99.90
8979;DHT22;4524;51.364;5.448;2022-07-22T02:36:25;16.80;99.90
8979;DHT22;4524;51.364;5.448;2022-07-22T02:38:53;16.70;99.90
8979;DHT22;4524;51.364;5.448;2022-07-22T02:41:22;16.70;99.90
8979;DHT22;4524;51.364;5.448;2022-07-22T02:43:53;16.70;99.90
8979;DHT22;4524;51.364;5.448;2022-07-22T02:46:24;16.70;99.90
8979;DHT22;4524;51.364;5.448;2022-07-22T02:48:52;16.70;99.90
8979;DHT22;4524;51.364;5.448;2022-07-22T02:51:22;16.70;99.90
8979;DHT22;4524;51.364;5.448;2022-07-22T02:53:50;16.60;99.90
8979;DHT22;4524;51.364;5.448;2022-07-22T02:56:19;16.70;99.90
8979;DHT22;4524;51.364;5.448;2022-07-22T02:58:47;16.70;99.90
8979;DHT22;4524;51.364;5.448;2022-07-22T03:01:19;16.60;99.90
8979;DHT22;4524;51.364;5.448;2022-07-22T03:03:54;16.60;99.90
8979;DHT22;4524;51.364;5.448;2022-07-22T03:06:24;16.60;99.90
8979;DHT22;4524;51.364;5.448;2022-07-22T03:09:03;16.60;99.90
8979;DHT22;4524;51.364;5.448;2022-07-22T03:11:34;16.50;99.90
8979;DHT22;4524;51.364;5.448;2022-07-22T03:14:02;16.60;99.90
8979;DHT22;4524;51.364;5.448;2022-07-22T03:16:30;16.50;99.90
8979;DHT22;4524;51.364;5.448;2022-07-22T03:19:00;16.50;99.90
8979;DHT22;4524;51.364;5.448;2022-07-22T03:21:28;16.60;99.90
8979;DHT22;4524;51.364;5.448;2022-07-22T03:23:56;16.50;99.90
8979;DHT22;4524;51.364;5.448;2022-07-22T03:26:24;16.40;99.90
8979;DHT22;4524;51.364;5.448;2022-07-22T03:28:52;16.50;99.90
8979;DHT22;4524;51.364;5.448;2022-07-22T03:31:21;16.60;99.90
8979;DHT22;4524;51.364;5.448;2022-07-22T03:33:49;16.50;99.90
8979;DHT22;4524;51.364;5.448;2022-07-22T03:36:20;16.50;99.90
8979;DHT22;4524;51.364;5.448;2022-07-22T03:38:50;16.50;99.90
8979;DHT22;4524;51.364;5.448;2022-07-22T03:41:19;16.40;99.90
8979;DHT22;4524;51.364;5.448;2022-07-22T03:43:47;16.50;99.90
8979;DHT22;4524;51.364;5.448;2022-07-22T03:46:16;16.50;99.90
8979;DHT22;4524;51.364;5.448;2022-07-22T03:48:44;16.50;99.90
8979;DHT22;4524;51.364;5.448;2022-07-22T03:51:13;16.40;99.90
8979;DHT22;4524;51.364;5.448;2022-07-22T03:53:42;16.50;99.90
8979;DHT22;4524;51.364;5.448;2022-07-22T03:56:11;16.50;99.90
8979;DHT22;4524;51.364;5.448;2022-07-22T03:58:39;16.50;99.90
8979;DHT22;4524;51.364;5.448;2022-07-22T04:01:07;16.60;99.90
8979;DHT22;4524;51.364;5.448;2022-07-22T04:03:36;16.60;99.90
8979;DHT22;4524;51.364;5.448;2022-07-22T04:06:08;16.60;99.90
8979;DHT22;4524;51.364;5.448;2022-07-22T04:08:46;16.60;99.90
8979;DHT22;4524;51.364;5.448;2022-07-22T04:11:16;16.70;99.90
8979;DHT22;4524;51.364;5.448;2022-07-22T04:13:44;16.60;99.90
8979;DHT22;4524;51.364;5.448;2022-07-22T04:16:13;16.70;99.90
8979;DHT22;4524;51.364;5.448;2022-07-22T04:18:50;16.70;99.90
8979;DHT22;4524;51.364;5.448;2022-07-22T04:21:33;16.80;99.90
8979;DHT22;4524;51.364;5.448;2022-07-22T04:24:08;16.80;99.90
8979;DHT22;4524;51.364;5.448;2022-07-22T04:26:37;16.80;99.90
8979;DHT22;4524;51.364;5.448;2022-07-22T04:29:05;16.80;99.90
8979;DHT22;4524;51.364;5.448;2022-07-22T04:31:33;16.80;99.90
8979;DHT22;4524;51.364;5.448;2022-07-22T04:34:10;16.90;99.90
8979;DHT22;4524;51.364;5.448;2022-07-22T04:36:38;16.90;99.90
8979;DHT22;4524;51.364;5.448;2022-07-22T04:39:07;17.00;99.90
8979;DHT22;4524;51.364;5.448;2022-07-22T04:41:37;17.00;99.90
8979;DHT22;4524;51.364;5.448;2022-07-22T04:44:05;17.00;99.90
8979;DHT22;4524;51.364;5.448;2022-07-22T04:46:33;16.90;99.90
8979;DHT22;4524;51.364;5.448;2022-07-22T04:49:01;17.00;99.90
8979;DHT22;4524;51.364;5.448;2022-07-22T04:51:30;17.00;99.90
8979;DHT22;4524;51.364;5.448;2022-07-22T04:54:03;17.00;99.90
8979;DHT22;4524;51.364;5.448;2022-07-22T04:56:38;16.80;99.90
8979;DHT22;4524;51.364;5.448;2022-07-22T04:59:06;16.90;99.90
8979;DHT22;4524;51.364;5.448;2022-07-22T05:01:35;17.00;99.90
8979;DHT22;4524;51.364;5.448;2022-07-22T05:04:05;17.10;99.90
8979;DHT22;4524;51.364;5.448;2022-07-22T05:06:33;17.10;99.90
8979;DHT22;4524;51.364;5.448;2022-07-22T05:09:03;17.10;99.90
8979;DHT22;4524;51.364;5.448;2022-07-22T05:11:31;17.10;99.90
8979;DHT22;4524;51.364;5.448;2022-07-22T05:14:00;17.20;99.90
8979;DHT22;4524;51.364;5.448;2022-07-22T05:16:29;17.20;99.90
8979;DHT22;4524;51.364;5.448;2022-07-22T05:18:57;17.30;99.90
8979;DHT22;4524;51.364;5.448;2022-07-22T05:21:26;17.10;99.90
8979;DHT22;4524;51.364;5.448;2022-07-22T05:23:54;17.20;99.90
8979;DHT22;4524;51.364;5.448;2022-07-22T05:26:22;17.30;99.90
8979;DHT22;4524;51.364;5.448;2022-07-22T05:28:52;17.40;99.90
8979;DHT22;4524;51.364;5.448;2022-07-22T05:31:22;17.50;99.90
8979;DHT22;4524;51.364;5.448;2022-07-22T05:33:51;17.50;99.90
8979;DHT22;4524;51.364;5.448;2022-07-22T05:36:28;17.40;99.90
8979;DHT22;4524;51.364;5.448;2022-07-22T05:38:57;17.40;99.90
8979;DHT22;4524;51.364;5.448;2022-07-22T05:41:26;17.40;99.90
8979;DHT22;4524;51.364;5.448;2022-07-22T05:43:54;17.50;99.90
8979;DHT22;4524;51.364;5.448;2022-07-22T05:46:24;17.50;99.90
8979;DHT22;4524;51.364;5.448;2022-07-22T05:48:53;17.50;99.90
8979;DHT22;4524;51.364;5.448;2022-07-22T05:51:22;17.50;99.90
8979;DHT22;4524;51.364;5.448;2022-07-22T05:53:51;17.40;99.90
8979;DHT22;4524;51.364;5.448;2022-07-22T05:56:19;17.40;99.90
8979;DHT22;4524;51.364;5.448;2022-07-22T05:58:47;17.60;99.90
8979;DHT22;4524;51.364;5.448;2022-07-22T06:01:16;17.70;99.90
8979;DHT22;4524;51.364;5.448;2022-07-22T06:03:45;17.80;99.90
8979;DHT22;4524;51.364;5.448;2022-07-22T06:06:14;17.90;99.90
8979;DHT22;4524;51.364;5.448;2022-07-22T06:08:43;18.00;99.90
8979;DHT22;4524;51.364;5.448;2022-07-22T06:11:19;18.10;99.90
8979;DHT22;4524;51.364;5.448;2022-07-22T06:13:47;18.00;99.90
8979;DHT22;4524;51.364;5.448;2022-07-22T06:16:15;17.90;99.90
8979;DHT22;4524;51.364;5.448;2022-07-22T06:18:45;18.10;99.90
8979;DHT22;4524;51.364;5.448;2022-07-22T06:21:13;18.10;99.90
8979;DHT22;4524;51.364;5.448;2022-07-22T06:23:41;18.20;99.90
8979;DHT22;4524;51.364;5.448;2022-07-22T06:26:09;18.10;99.90
8979;DHT22;4524;51.364;5.448;2022-07-22T06:28:37;18.10;99.90
8979;DHT22;4524;51.364;5.448;2022-07-22T06:31:05;18.10;99.90
8979;DHT22;4524;51.364;5.448;2022-07-22T06:33:33;18.20;99.90
8979;DHT22;4524;51.364;5.448;2022-07-22T06:36:04;18.10;99.90
8979;DHT22;4524;51.364;5.448;2022-07-22T06:38:32;18.00;99.90
8979;DHT22;4524;51.364;5.448;2022-07-22T06:41:19;18.00;99.90
8979;DHT22;4524;51.364;5.448;2022-07-22T06:44:02;18.10;99.90
8979;DHT22;4524;51.364;5.448;2022-07-22T06:46:57;18.10;99.90
8979;DHT22;4524;51.364;5.448;2022-07-22T06:49:26;18.30;99.90
8979;DHT22;4524;51.364;5.448;2022-07-22T06:51:55;18.60;99.90
8979;DHT22;4524;51.364;5.448;2022-07-22T06:54:23;18.70;99.90
8979;DHT22;4524;51.364;5.448;2022-07-22T06:56:53;18.60;99.90
8979;DHT22;4524;51.364;5.448;2022-07-22T06:59:27;18.60;99.90
8979;DHT22;4524;51.364;5.448;2022-07-22T07:01:55;18.60;99.90
8979;DHT22;4524;51.364;5.448;2022-07-22T07:04:24;18.60;99.90
8979;DHT22;4524;51.364;5.448;2022-07-22T07:06:52;18.90;99.90
8979;DHT22;4524;51.364;5.448;2022-07-22T07:09:34;18.50;50.00
8979;DHT22;4524;51.364;5.448;2022-07-22T07:12:11;18.70;91.80
8979;DHT22;4524;51.364;5.448;2022-07-22T07:14:57;18.90;99.90
8979;DHT22;4524;51.364;5.448;2022-07-22T07:17:45;18.80;48.80
8979;DHT22;4524;51.364;5.448;2022-07-22T07:20:15;19.10;93.60
8979;DHT22;4524;51.364;5.448;2022-07-22T07:22:44;19.20;24.90
8979;DHT22;4524;51.364;5.448;2022-07-22T07:25:15;19.20;1.90
8979;DHT22;4524;51.364;5.448;2022-07-22T07:27:50;19.50;66.90
8979;DHT22;4524;51.364;5.448;2022-07-22T07:30:22;19.70;26.30
8979;DHT22;4524;51.364;5.448;2022-07-22T07:32:51;19.90;1.00
8979;DHT22;4524;51.364;5.448;2022-07-22T07:35:19;20.10;1.00
8979;DHT22;4524;51.364;5.448;2022-07-22T07:37:52;20.20;1.00
8979;DHT22;4524;51.364;5.448;2022-07-22T07:40:21;20.10;1.00
8979;DHT22;4524;51.364;5.448;2022-07-22T07:42:50;20.00;1.00
8979;DHT22;4524;51.364;5.448;2022-07-22T07:45:29;19.90;1.00
8979;DHT22;4524;51.364;5.448;2022-07-22T07:47:57;19.70;1.00
8979;DHT22;4524;51.364;5.448;2022-07-22T07:50:25;19.70;1.00
8979;DHT22;4524;51.364;5.448;2022-07-22T07:52:55;19.50;1.00
8979;DHT22;4524;51.364;5.448;2022-07-22T07:55:26;19.40;3.70
8979;DHT22;4524;51.364;5.448;2022-07-22T07:57:54;19.40;3.40
8979;DHT22;4524;51.364;5.448;2022-07-22T08:00:25;19.30;1.00
8979;DHT22;4524;51.364;5.448;2022-07-22T08:02:55;19.20;1.00
8979;DHT22;4524;51.364;5.448;2022-07-22T08:05:26;19.30;1.00
8979;DHT22;4524;51.364;5.448;2022-07-22T08:07:57;19.40;1.00
8979;DHT22;4524;51.364;5.448;2022-07-22T08:10:27;19.50;1.00
8979;DHT22;4524;51.364;5.448;2022-07-22T08:13:21;19.50;1.00
8979;DHT22;4524;51.364;5.448;2022-07-22T08:16:18;19.80;1.00
8979;DHT22;4524;51.364;5.448;2022-07-22T08:18:48;19.80;1.00
8979;DHT22;4524;51.364;5.448;2022-07-22T08:21:16;19.80;1.00
8979;DHT22;4524;51.364;5.448;2022-07-22T08:23:54;19.80;1.00
8979;DHT22;4524;51.364;5.448;2022-07-22T08:26:24;19.70;1.00
8979;DHT22;4524;51.364;5.448;2022-07-22T08:28:58;19.50;1.00
8979;DHT22;4524;51.364;5.448;2022-07-22T08:31:27;19.40;1.00
8979;DHT22;4524;51.364;5.448;2022-07-22T08:33:58;19.40;1.00
8979;DHT22;4524;51.364;5.448;2022-07-22T08:36:27;19.50;1.00
8979;DHT22;4524;51.364;5.448;2022-07-22T08:38:55;19.60;1.00
8979;DHT22;4524;51.364;5.448;2022-07-22T08:41:26;19.50;1.00
8979;DHT22;4524;51.364;5.448;2022-07-22T08:43:56;19.50;1.00
8979;DHT22;4524;51.364;5.448;2022-07-22T08:46:25;19.50;1.00
8979;DHT22;4524;51.364;5.448;2022-07-22T08:49:32;19.70;1.00
8979;DHT22;4524;51.364;5.448;2022-07-22T08:52:13;20.10;1.00
8979;DHT22;4524;51.364;5.448;2022-07-22T08:54:46;20.30;1.00
8979;DHT22;4524;51.364;5.448;2022-07-22T08:57:18;20.50;1.00
8979;DHT22;4524;51.364;5.448;2022-07-22T08:59:51;20.50;1.00
8979;DHT22;4524;51.364;5.448;2022-07-22T09:02:20;20.50;1.00
8979;DHT22;4524;51.364;5.448;2022-07-22T09:04:53;20.40;1.00
8979;DHT22;4524;51.364;5.448;2022-07-22T09:07:27;20.30;1.00
8979;DHT22;4524;51.364;5.448;2022-07-22T09:10:00;20.30;1.00
8979;DHT22;4524;51.364;5.448;2022-07-22T09:13:07;20.30;1.00
8979;DHT22;4524;51.364;5.448;2022-07-22T09:15:54;20.30;1.00
8979;DHT22;4524;51.364;5.448;2022-07-22T09:18:50;20.50;1.00
8979;DHT22;4524;51.364;5.448;2022-07-22T09:21:38;20.70;1.00
8979;DHT22;4524;51.364;5.448;2022-07-22T09:24:26;20.80;1.00
8979;DHT22;4524;51.364;5.448;2022-07-22T09:27:03;20.90;1.00
8979;DHT22;4524;51.364;5.448;2022-07-22T09:29:50;20.80;1.00
8979;DHT22;4524;51.364;5.448;2022-07-22T09:32:22;20.50;1.00
8979;DHT22;4524;51.364;5.448;2022-07-22T09:35:01;20.60;1.00
8979;DHT22;4524;51.364;5.448;2022-07-22T09:37:34;20.90;1.00
8979;DHT22;4524;51.364;5.448;2022-07-22T09:40:13;21.10;1.00
8979;DHT22;4524;51.364;5.448;2022-07-22T09:42:47;21.20;1.00
8979;DHT22;4524;51.364;5.448;2022-07-22T09:45:18;21.30;1.00
8979;DHT22;4524;51.364;5.448;2022-07-22T09:47:47;21.30;1.00
8979;DHT22;4524;51.364;5.448;2022-07-22T09:50:34;21.50;1.00
8979;DHT22;4524;51.364;5.448;2022-07-22T09:53:19;21.50;1.00
8979;DHT22;4524;51.364;5.448;2022-07-22T09:56:15;21.70;99.90
8979;DHT22;4524;51.364;5.448;2022-07-22T09:58:43;21.80;99.90
8979;DHT22;4524;51.364;5.448;2022-07-22T10:01:34;22.00;99.90
8979;DHT22;4524;51.364;5.448;2022-07-22T10:04:05;22.30;99.90
8979;DHT22;4524;51.364;5.448;2022-07-22T10:06:37;22.50;99.90
8979;DHT22;4524;51.364;5.448;2022-07-22T10:09:11;23.00;99.90
8979;DHT22;4524;51.364;5.448;2022-07-22T10:11:42;23.30;99.90
8979;DHT22;4524;51.364;5.448;2022-07-22T10:14:14;23.30;99.90
8979;DHT22;4524;51.364;5.448;2022-07-22T10:16:50;23.70;99.90
8979;DHT22;4524;51.364;5.448;2022-07-22T10:19:18;23.70;99.90
8979;DHT22;4524;51.364;5.448;2022-07-22T10:21:46;23.80;99.90
8979;DHT22;4524;51.364;5.448;2022-07-22T10:24:15;23.80;99.90
8979;DHT22;4524;51.364;5.448;2022-07-22T10:26:57;23.40;99.90
8979;DHT22;4524;51.364;5.448;2022-07-22T10:29:27;23.20;99.90
8979;DHT22;4524;51.364;5.448;2022-07-22T10:32:25;23.50;99.90
8979;DHT22;4524;51.364;5.448;2022-07-22T10:37:56;24.00;99.90
8979;DHT22;4524;51.364;5.448;2022-07-22T10:40:26;24.10;99.90
8979;DHT22;4524;51.364;5.448;2022-07-22T10:43:05;23.90;99.90
8979;DHT22;4524;51.364;5.448;2022-07-22T10:45:36;23.80;99.90
8979;DHT22;4524;51.364;5.448;2022-07-22T10:48:08;23.50;99.90
8979;DHT22;4524;51.364;5.448;2022-07-22T10:50:41;23.30;99.90
8979;DHT22;4524;51.364;5.448;2022-07-22T10:53:11;22.90;99.90
8979;DHT22;4524;51.364;5.448;2022-07-22T10:55:58;22.70;99.90
8979;DHT22;4524;51.364;5.448;2022-07-22T10:58:53;22.40;99.90
8979;DHT22;4524;51.364;5.448;2022-07-22T11:01:24;22.50;99.90
8979;DHT22;4524;51.364;5.448;2022-07-22T11:03:54;22.40;99.90
8979;DHT22;4524;51.364;5.448;2022-07-22T11:06:26;22.30;99.90
8979;DHT22;4524;51.364;5.448;2022-07-22T11:08:56;22.60;99.90
8979;DHT22;4524;51.364;5.448;2022-07-22T11:11:39;23.10;99.90
8979;DHT22;4524;51.364;5.448;2022-07-22T11:14:15;23.50;99.90
8979;DHT22;4524;51.364;5.448;2022-07-22T11:16:45;23.90;99.90
8979;DHT22;4524;51.364;5.448;2022-07-22T11:19:19;23.60;99.90
8979;DHT22;4524;51.364;5.448;2022-07-22T11:21:52;23.70;99.90
8979;DHT22;4524;51.364;5.448;2022-07-22T11:24:21;23.50;99.90
8979;DHT22;4524;51.364;5.448;2022-07-22T11:26:51;23.30;99.90
8979;DHT22;4524;51.364;5.448;2022-07-22T11:29:25;23.50;99.90
8979;DHT22;4524;51.364;5.448;2022-07-22T11:31:54;23.50;99.90
8979;DHT22;4524;51.364;5.448;2022-07-22T11:34:24;23.80;99.90
8979;DHT22;4524;51.364;5.448;2022-07-22T11:36:53;24.10;99.90
8979;DHT22;4524;51.364;5.448;2022-07-22T11:39:22;24.00;99.90
8979;DHT22;4524;51.364;5.448;2022-07-22T11:41:53;24.50;99.90
8979;DHT22;4524;51.364;5.448;2022-07-22T11:44:24;24.20;99.90
8979;DHT22;4524;51.364;5.448;2022-07-22T11:46:53;23.90;99.90
8979;DHT22;4524;51.364;5.448;2022-07-22T11:49:29;24.00;99.90
8979;DHT22;4524;51.364;5.448;2022-07-22T11:51:57;23.80;99.90
8979;DHT22;4524;51.364;5.448;2022-07-22T11:54:25;23.60;99.90
8979;DHT22;4524;51.364;5.448;2022-07-22T11:56:53;23.60;99.90
8979;DHT22;4524;51.364;5.448;2022-07-22T11:59:24;23.80;99.90
8979;DHT22;4524;51.364;5.448;2022-07-22T12:01:52;23.60;99.90
8979;DHT22;4524;51.364;5.448;2022-07-22T12:04:22;23.60;99.90
8979;DHT22;4524;51.364;5.448;2022-07-22T12:06:53;23.70;99.90
8979;DHT22;4524;51.364;5.448;2022-07-22T12:09:23;23.70;99.90
8979;DHT22;4524;51.364;5.448;2022-07-22T12:11:53;23.60;99.90
8979;DHT22;4524;51.364;5.448;2022-07-22T12:14:23;23.60;99.90
8979;DHT22;4524;51.364;5.448;2022-07-22T12:16:57;23.50;99.90
8979;DHT22;4524;51.364;5.448;2022-07-22T12:19:27;23.90;99.90
8979;DHT22;4524;51.364;5.448;2022-07-22T12:22:00;24.20;99.90
8979;DHT22;4524;51.364;5.448;2022-07-22T12:24:30;24.40;99.90
8979;DHT22;4524;51.364;5.448;2022-07-22T12:26:59;24.40;99.90
8979;DHT22;4524;51.364;5.448;2022-07-22T12:29:29;24.10;99.90
8979;DHT22;4524;51.364;5.448;2022-07-22T12:31:59;23.90;99.90
8979;DHT22;4524;51.364;5.448;2022-07-22T12:34:36;24.10;99.90
8979;DHT22;4524;51.364;5.448;2022-07-22T12:37:14;24.10;99.90
8979;DHT22;4524;51.364;5.448;2022-07-22T12:39:57;24.00;99.90
8979;DHT22;4524;51.364;5.448;2022-07-22T12:42:26;24.30;99.90
8979;DHT22;4524;51.364;5.448;2022-07-22T12:45:01;24.60;99.90
8979;DHT22;4524;51.364;5.448;2022-07-22T12:47:47;24.60;99.90
8979;DHT22;4524;51.364;5.448;2022-07-22T12:50:18;24.70;99.90
8979;DHT22;4524;51.364;5.448;2022-07-22T12:52:48;24.40;99.90
8979;DHT22;4524;51.364;5.448;2022-07-22T12:55:38;24.20;99.90
8979;DHT22;4524;51.364;5.448;2022-07-22T12:58:07;24.20;99.90
8979;DHT22;4524;51.364;5.448;2022-07-22T13:00:37;24.30;99.90
8979;DHT22;4524;51.364;5.448;2022-07-22T13:03:05;24.50;99.90
8979;DHT22;4524;51.364;5.448;2022-07-22T13:05:34;24.60;99.90
8979;DHT22;4524;51.364;5.448;2022-07-22T13:08:04;24.40;99.90
8979;DHT22;4524;51.364;5.448;2022-07-22T13:10:36;24.50;99.90
8979;DHT22;4524;51.364;5.448;2022-07-22T13:13:05;24.70;99.90
8979;DHT22;4524;51.364;5.448;2022-07-22T13:15:34;24.90;99.90
8979;DHT22;4524;51.364;5.448;2022-07-22T13:18:03;24.70;99.90
8979;DHT22;4524;51.364;5.448;2022-07-22T13:20:32;24.70;99.90
8979;DHT22;4524;51.364;5.448;2022-07-22T13:23:00;24.50;99.90
8979;DHT22;4524;51.364;5.448;2022-07-22T13:25:29;24.60;99.90
8979;DHT22;4524;51.364;5.448;2022-07-22T13:27:59;24.50;99.90
8979;DHT22;4524;51.364;5.448;2022-07-22T13:30:27;24.50;99.90
8979;DHT22;4524;51.364;5.448;2022-07-22T13:32:55;24.70;99.90
8979;DHT22;4524;51.364;5.448;2022-07-22T13:35:23;24.60;99.90
8979;DHT22;4524;51.364;5.448;2022-07-22T13:37:51;24.70;99.90
8979;DHT22;4524;51.364;5.448;2022-07-22T13:40:19;24.90;99.90
8979;DHT22;4524;51.364;5.448;2022-07-22T13:42:48;25.10;99.90
8979;DHT22;4524;51.364;5.448;2022-07-22T13:45:16;24.80;99.90
8979;DHT22;4524;51.364;5.448;2022-07-22T13:47:44;25.00;99.90
8979;DHT22;4524;51.364;5.448;2022-07-22T13:50:12;25.10;99.90
8979;DHT22;4524;51.364;5.448;2022-07-22T13:52:40;25.10;99.90
8979;DHT22;4524;51.364;5.448;2022-07-22T13:55:08;25.00;99.90
8979;DHT22;4524;51.364;5.448;2022-07-22T13:57:36;24.60;99.90
8979;DHT22;4524;51.364;5.448;2022-07-22T14:00:07;24.70;99.90
8979;DHT22;4524;51.364;5.448;2022-07-22T14:02:40;24.70;99.90
8979;DHT22;4524;51.364;5.448;2022-07-22T14:05:10;24.60;99.90
8979;DHT22;4524;51.364;5.448;2022-07-22T14:07:38;24.60;99.90
8979;DHT22;4524;51.364;5.448;2022-07-22T14:10:07;24.60;99.90
8979;DHT22;4524;51.364;5.448;2022-07-22T14:12:36;24.20;99.90
8979;DHT22;4524;51.364;5.448;2022-07-22T14:15:07;24.20;99.90
8979;DHT22;4524;51.364;5.448;2022-07-22T14:17:35;24.20;99.90
8979;DHT22;4524;51.364;5.448;2022-07-22T14:20:06;24.20;99.90
8979;DHT22;4524;51.364;5.448;2022-07-22T14:22:35;24.40;99.90
8979;DHT22;4524;51.364;5.448;2022-07-22T14:25:03;24.50;99.90
8979;DHT22;4524;51.364;5.448;2022-07-22T14:27:31;24.40;99.90
8979;DHT22;4524;51.364;5.448;2022-07-22T14:29:59;24.20;99.90
8979;DHT22;4524;51.364;5.448;2022-07-22T14:32:28;24.40;99.90
8979;DHT22;4524;51.364;5.448;2022-07-22T14:34:56;24.50;99.90
8979;DHT22;4524;51.364;5.448;2022-07-22T14:37:24;24.50;99.90
8979;DHT22;4524;51.364;5.448;2022-07-22T14:39:53;24.60;99.90
8979;DHT22;4524;51.364;5.448;2022-07-22T14:42:21;24.70;99.90
8979;DHT22;4524;51.364;5.448;2022-07-22T14:44:49;24.40;99.90
8979;DHT22;4524;51.364;5.448;2022-07-22T14:47:17;24.40;99.90
8979;DHT22;4524;51.364;5.448;2022-07-22T14:49:47;24.50;99.90
8979;DHT22;4524;51.364;5.448;2022-07-22T14:52:14;24.30;99.90
8979;DHT22;4524;51.364;5.448;2022-07-22T14:54:42;24.40;99.90
8979;DHT22;4524;51.364;5.448;2022-07-22T14:57:10;24.50;99.90
8979;DHT22;4524;51.364;5.448;2022-07-22T14:59:38;24.50;99.90
8979;DHT22;4524;51.364;5.448;2022-07-22T15:02:06;24.70;99.90
8979;DHT22;4524;51.364;5.448;2022-07-22T15:04:34;24.50;99.90
8979;DHT22;4524;51.364;5.448;2022-07-22T15:07:03;24.50;99.90
8979;DHT22;4524;51.364;5.448;2022-07-22T15:09:32;24.50;99.90
8979;DHT22;4524;51.364;5.448;2022-07-22T15:11:59;24.50;99.90
8979;DHT22;4524;51.364;5.448;2022-07-22T15:14:27;24.30;99.90
8979;DHT22;4524;51.364;5.448;2022-07-22T15:16:55;24.30;99.90
8979;DHT22;4524;51.364;5.448;2022-07-22T15:19:23;24.30;99.90
8979;DHT22;4524;51.364;5.448;2022-07-22T15:21:53;24.10;99.90
8979;DHT22;4524;51.364;5.448;2022-07-22T15:24:23;24.00;99.90
8979;DHT22;4524;51.364;5.448;2022-07-22T15:26:52;24.10;99.90
8979;DHT22;4524;51.364;5.448;2022-07-22T15:29:19;24.30;99.90
8979;DHT22;4524;51.364;5.448;2022-07-22T15:31:47;24.40;99.90
8979;DHT22;4524;51.364;5.448;2022-07-22T15:34:16;24.30;99.90
8979;DHT22;4524;51.364;5.448;2022-07-22T15:36:44;24.00;99.90
8979;DHT22;4524;51.364;5.448;2022-07-22T15:39:12;23.90;99.90
8979;DHT22;4524;51.364;5.448;2022-07-22T15:41:41;23.80;99.90
8979;DHT22;4524;51.364;5.448;2022-07-22T15:44:09;24.00;99.90
8979;DHT22;4524;51.364;5.448;2022-07-22T15:46:37;23.90;99.90
8979;DHT22;4524;51.364;5.448;2022-07-22T15:49:05;24.00;99.90
8979;DHT22;4524;51.364;5.448;2022-07-22T15:51:33;23.90;99.90
8979;DHT22;4524;51.364;5.448;2022-07-22T15:54:01;23.80;99.90
8979;DHT22;4524;51.364;5.448;2022-07-22T15:56:29;23.60;99.90
8979;DHT22;4524;51.364;5.448;2022-07-22T15:58:58;23.50;99.90
8979;DHT22;4524;51.364;5.448;2022-07-22T16:01:55;23.60;99.90
8979;DHT22;4524;51.364;5.448;2022-07-22T16:04:23;23.40;99.90
8979;DHT22;4524;51.364;5.448;2022-07-22T16:06:51;23.50;99.90
8979;DHT22;4524;51.364;5.448;2022-07-22T16:09:21;23.40;99.90
8979;DHT22;4524;51.364;5.448;2022-07-22T16:11:54;23.40;99.90
8979;DHT22;4524;51.364;5.448;2022-07-22T16:14:23;23.50;99.90
8979;DHT22;4524;51.364;5.448;2022-07-22T16:16:51;23.60;99.90
8979;DHT22;4524;51.364;5.448;2022-07-22T16:19:20;23.50;99.90
8979;DHT22;4524;51.364;5.448;2022-07-22T16:21:48;23.30;99.90
8979;DHT22;4524;51.364;5.448;2022-07-22T16:24:16;23.30;99.90
8979;DHT22;4524;51.364;5.448;2022-07-22T16:26:44;23.30;99.90
8979;DHT22;4524;51.364;5.448;2022-07-22T16:29:12;23.30;99.90
8979;DHT22;4524;51.364;5.448;2022-07-22T16:31:42;23.20;99.90
8979;DHT22;4524;51.364;5.448;2022-07-22T16:34:10;23.30;99.90